sensor_id;sensor_type;location;lat;lon;timestamp;temperature;humidity
1680;DHT22;838;51.794;12.258;2023-08-12T00:00:19;20.40;24.30
1680;DHT22;838;51.794;12.258;2023-08-12T00:02:45;20.40;23.50
1680;DHT22;838;51.794;12.258;2023-08-12T00:05:11;20.50;22.80
1680;DHT22;838;51.794;12.258;2023-08-12T00:07:40;20.60;22.50
1680;DHT22;838;51.794;12.258;2023-08-12T00:10:11;20.60;21.00
1680;DHT22;838;51.794;12.258;2023-08-12T00:12:38;20.60;20.90
1680;DHT22;838;51.794;12.258;2023-08-12T00:15:05;20.60;21.00
1680;DHT22;838;51.794;12.258;2023-08-12T00:17:32;20.60;20.90
1680;DHT22;838;51.794;12.258;2023-08-12T00:19:59;20.60;21.60
1680;DHT22;838;51.794;12.258;2023-08-12T00:22:24;20.40;22.90
1680;DHT22;838;51.794;12.258;2023-08-12T00:24:51;20.40;23.30
1680;DHT22;838;51.794;12.258;2023-08-12T00:27:17;20.50;22.70
1680;DHT22;838;51.794;12.258;2023-08-12T00:29:43;20.50;22.30
1680;DHT22;838;51.794;12.258;2023-08-12T00:32:09;20.60;21.40
1680;DHT22;838;51.794;12.258;2023-08-12T00:34:34;20.60;20.80
1680;DHT22;838;51.794;12.258;2023-08-12T00:37:00;20.60;20.60
1680;DHT22;838;51.794;12.258;2023-08-12T00:39:26;20.60;20.90
1680;DHT22;838;51.794;12.258;2023-08-12T00:41:52;20.60;20.70
1680;DHT22;838;51.794;12.258;2023-08-12T00:44:17;20.60;20.30
1680;DHT22;838;51.794;12.258;2023-08-12T00:46:43;20.30;22.20
1680;DHT22;838;51.794;12.258;2023-08-12T00:49:10;19.70;26.10
1680;DHT22;838;51.794;12.258;2023-08-12T00:51:41;19.20;30.30
1680;DHT22;838;51.794;12.258;2023-08-12T00:54:08;18.90;35.60
1680;DHT22;838;51.794;12.258;2023-08-12T00:56:37;18.80;38.10
1680;DHT22;838;51.794;12.258;2023-08-12T00:59:04;18.90;37.90
1680;DHT22;838;51.794;12.258;2023-08-12T01:01:31;18.90;36.60
1680;DHT22;838;51.794;12.258;2023-08-12T01:03:57;18.90;35.70
1680;DHT22;838;51.794;12.258;2023-08-12T01:06:24;18.70;38.00
1680;DHT22;838;51.794;12.258;2023-08-12T01:08:50;18.40;42.50
1680;DHT22;838;51.794;12.258;2023-08-12T01:11:28;18.20;46.00
1680;DHT22;838;51.794;12.258;2023-08-12T01:13:58;18.10;48.20
1680;DHT22;838;51.794;12.258;2023-08-12T01:16:28;18.00;50.70
1680;DHT22;838;51.794;12.258;2023-08-12T01:18:56;18.10;49.60
1680;DHT22;838;51.794;12.258;2023-08-12T01:21:24;18.30;48.20
1680;DHT22;838;51.794;12.258;2023-08-12T01:23:52;18.40;46.20
1680;DHT22;838;51.794;12.258;2023-08-12T01:26:18;18.60;46.30
1680;DHT22;838;51.794;12.258;2023-08-12T01:28:43;18.90;42.80
1680;DHT22;838;51.794;12.258;2023-08-12T01:31:13;19.30;39.40
1680;DHT22;838;51.794;12.258;2023-08-12T01:34:02;19.50;37.50
1680;DHT22;838;51.794;12.258;2023-08-12T01:36:32;19.60;35.30
1680;DHT22;838;51.794;12.258;2023-08-12T01:39:00;19.40;35.70
1680;DHT22;838;51.794;12.258;2023-08-12T01:41:26;19.20;38.50
1680;DHT22;838;51.794;12.258;2023-08-12T01:43:52;19.10;39.10
1680;DHT22;838;51.794;12.258;2023-08-12T01:46:18;19.30;37.80
1680;DHT22;838;51.794;12.258;2023-08-12T01:48:44;19.50;35.80
1680;DHT22;838;51.794;12.258;2023-08-12T01:51:09;19.70;34.60
1680;DHT22;838;51.794;12.258;2023-08-12T01:53:35;19.80;32.90
1680;DHT22;838;51.794;12.258;2023-08-12T01:56:01;20.00;30.50
1680;DHT22;838;51.794;12.258;2023-08-12T01:58:26;20.20;29.50
1680;DHT22;838;51.794;12.258;2023-08-12T02:00:53;20.30;27.80
1680;DHT22;838;51.794;12.258;2023-08-12T02:03:19;20.10;30.00
1680;DHT22;838;51.794;12.258;2023-08-12T02:05:44;19.90;29.70
1680;DHT22;838;51.794;12.258;2023-08-12T02:08:10;19.90;29.60
1680;DHT22;838;51.794;12.258;2023-08-12T02:10:36;19.60;31.10
1680;DHT22;838;51.794;12.258;2023-08-12T02:13:02;19.20;36.30
1680;DHT22;838;51.794;12.258;2023-08-12T02:15:28;19.10;38.40
1680;DHT22;838;51.794;12.258;2023-08-12T02:17:54;19.10;37.90
1680;DHT22;838;51.794;12.258;2023-08-12T02:20:20;19.00;40.00
1680;DHT22;838;51.794;12.258;2023-08-12T02:22:45;18.90;41.50
1680;DHT22;838;51.794;12.258;2023-08-12T02:25:11;18.90;41.50
1680;DHT22;838;51.794;12.258;2023-08-12T02:27:37;19.10;38.70
1680;DHT22;838;51.794;12.258;2023-08-12T02:30:03;19.30;36.30
1680;DHT22;838;51.794;12.258;2023-08-12T02:32:29;19.50;34.20
1680;DHT22;838;51.794;12.258;2023-08-12T02:34:55;19.50;32.50
1680;DHT22;838;51.794;12.258;2023-08-12T02:37:20;19.30;35.10
1680;DHT22;838;51.794;12.258;2023-08-12T02:39:46;19.40;34.60
1680;DHT22;838;51.794;12.258;2023-08-12T02:42:12;19.30;36.10
1680;DHT22;838;51.794;12.258;2023-08-12T02:44:38;19.40;35.40
1680;DHT22;838;51.794;12.258;2023-08-12T02:47:03;19.30;35.70
1680;DHT22;838;51.794;12.258;2023-08-12T02:49:29;19.00;38.70
1680;DHT22;838;51.794;12.258;2023-08-12T02:51:55;19.00;38.30
1680;DHT22;838;51.794;12.258;2023-08-12T02:54:20;18.90;40.20
1680;DHT22;838;51.794;12.258;2023-08-12T02:56:46;19.00;39.40
1680;DHT22;838;51.794;12.258;2023-08-12T02:59:12;19.00;38.60
1680;DHT22;838;51.794;12.258;2023-08-12T03:01:38;19.00;37.70
1680;DHT22;838;51.794;12.258;2023-08-12T03:04:05;19.10;36.30
1680;DHT22;838;51.794;12.258;2023-08-12T03:06:31;18.80;39.30
1680;DHT22;838;51.794;12.258;2023-08-12T03:08:57;18.60;41.40
1680;DHT22;838;51.794;12.258;2023-08-12T03:11:22;18.10;46.60
1680;DHT22;838;51.794;12.258;2023-08-12T03:13:48;17.70;52.20
1680;DHT22;838;51.794;12.258;2023-08-12T03:16:14;17.50;56.00
1680;DHT22;838;51.794;12.258;2023-08-12T03:18:40;17.20;58.60
1680;DHT22;838;51.794;12.258;2023-08-12T03:21:09;17.20;60.80
1680;DHT22;838;51.794;12.258;2023-08-12T03:23:35;17.00;63.00
1680;DHT22;838;51.794;12.258;2023-08-12T03:26:02;16.90;63.70
1680;DHT22;838;51.794;12.258;2023-08-12T03:28:28;16.80;65.70
1680;DHT22;838;51.794;12.258;2023-08-12T03:30:54;16.80;67.30
1680;DHT22;838;51.794;12.258;2023-08-12T03:33:19;16.80;67.30
1680;DHT22;838;51.794;12.258;2023-08-12T03:35:46;16.90;67.50
1680;DHT22;838;51.794;12.258;2023-08-12T03:38:12;17.00;65.60
1680;DHT22;838;51.794;12.258;2023-08-12T03:40:39;17.30;63.30
1680;DHT22;838;51.794;12.258;2023-08-12T03:43:05;17.60;58.40
1680;DHT22;838;51.794;12.258;2023-08-12T03:45:30;17.90;54.60
1680;DHT22;838;51.794;12.258;2023-08-12T03:47:56;18.00;52.60
1680;DHT22;838;51.794;12.258;2023-08-12T03:50:22;18.00;52.00
1680;DHT22;838;51.794;12.258;2023-08-12T03:52:48;18.20;50.00
1680;DHT22;838;51.794;12.258;2023-08-12T03:55:13;18.20;49.80
1680;DHT22;838;51.794;12.258;2023-08-12T03:57:39;18.10;51.00
1680;DHT22;838;51.794;12.258;2023-08-12T04:00:05;18.20;50.20
1680;DHT22;838;51.794;12.258;2023-08-12T04:02:33;18.00;50.90
1680;DHT22;838;51.794;12.258;2023-08-12T04:04:59;17.90;51.60
1680;DHT22;838;51.794;12.258;2023-08-12T04:07:25;17.50;56.50
1680;DHT22;838;51.794;12.258;2023-08-12T04:09:52;17.20;60.20
1680;DHT22;838;51.794;12.258;2023-08-12T04:12:18;17.00;63.80
1680;DHT22;838;51.794;12.258;2023-08-12T04:14:44;16.90;66.50
1680;DHT22;838;51.794;12.258;2023-08-12T04:17:09;16.80;68.70
1680;DHT22;838;51.794;12.258;2023-08-12T04:19:35;16.80;70.00
1680;DHT22;838;51.794;12.258;2023-08-12T04:22:01;16.90;70.40
1680;DHT22;838;51.794;12.258;2023-08-12T04:24:26;16.90;70.10
1680;DHT22;838;51.794;12.258;2023-08-12T04:26:52;16.90;70.30
1680;DHT22;838;51.794;12.258;2023-08-12T04:29:18;16.90;71.50
1680;DHT22;838;51.794;12.258;2023-08-12T04:31:44;16.90;71.40
1680;DHT22;838;51.794;12.258;2023-08-12T04:34:09;17.00;71.80
1680;DHT22;838;51.794;12.258;2023-08-12T04:36:35;17.00;70.00
1680;DHT22;838;51.794;12.258;2023-08-12T04:39:01;17.20;69.00
1680;DHT22;838;51.794;12.258;2023-08-12T04:41:26;17.30;68.50
1680;DHT22;838;51.794;12.258;2023-08-12T04:43:52;17.50;66.80
1680;DHT22;838;51.794;12.258;2023-08-12T04:46:18;17.60;65.90
1680;DHT22;838;51.794;12.258;2023-08-12T04:48:43;17.80;64.40
1680;DHT22;838;51.794;12.258;2023-08-12T04:51:09;17.90;61.80
1680;DHT22;838;51.794;12.258;2023-08-12T04:53:35;18.00;60.30
1680;DHT22;838;51.794;12.258;2023-08-12T04:56:01;18.10;61.20
1680;DHT22;838;51.794;12.258;2023-08-12T04:58:27;18.30;59.50
1680;DHT22;838;51.794;12.258;2023-08-12T05:00:53;18.50;56.80
1680;DHT22;838;51.794;12.258;2023-08-12T05:03:18;18.80;54.80
1680;DHT22;838;51.794;12.258;2023-08-12T05:05:49;19.30;51.90
1680;DHT22;838;51.794;12.258;2023-08-12T05:08:15;19.60;47.90
1680;DHT22;838;51.794;12.258;2023-08-12T05:10:40;19.90;45.30
1680;DHT22;838;51.794;12.258;2023-08-12T05:13:06;19.80;46.10
1680;DHT22;838;51.794;12.258;2023-08-12T05:15:32;19.70;46.30
1680;DHT22;838;51.794;12.258;2023-08-12T05:17:57;19.80;47.20
1680;DHT22;838;51.794;12.258;2023-08-12T05:20:23;19.90;45.70
1680;DHT22;838;51.794;12.258;2023-08-12T05:22:49;20.10;45.70
1680;DHT22;838;51.794;12.258;2023-08-12T05:25:15;20.10;45.30
1680;DHT22;838;51.794;12.258;2023-08-12T05:27:40;20.20;48.50
1680;DHT22;838;51.794;12.258;2023-08-12T05:30:07;20.20;47.10
1680;DHT22;838;51.794;12.258;2023-08-12T05:32:33;20.30;46.00
1680;DHT22;838;51.794;12.258;2023-08-12T05:34:58;20.40;45.60
1680;DHT22;838;51.794;12.258;2023-08-12T05:37:24;20.50;44.80
1680;DHT22;838;51.794;12.258;2023-08-12T05:39:50;20.50;45.70
1680;DHT22;838;51.794;12.258;2023-08-12T05:42:15;20.50;47.10
1680;DHT22;838;51.794;12.258;2023-08-12T05:44:42;20.40;47.10
1680;DHT22;838;51.794;12.258;2023-08-12T05:47:08;20.40;50.30
1680;DHT22;838;51.794;12.258;2023-08-12T05:49:33;20.50;48.00
1680;DHT22;838;51.794;12.258;2023-08-12T05:51:59;20.60;46.50
1680;DHT22;838;51.794;12.258;2023-08-12T05:54:25;20.80;44.50
1680;DHT22;838;51.794;12.258;2023-08-12T05:56:51;20.80;46.00
1680;DHT22;838;51.794;12.258;2023-08-12T05:59:17;20.90;47.90
1680;DHT22;838;51.794;12.258;2023-08-12T06:01:42;20.80;45.90
1680;DHT22;838;51.794;12.258;2023-08-12T06:04:08;20.80;48.10
1680;DHT22;838;51.794;12.258;2023-08-12T06:06:34;20.90;48.00
1680;DHT22;838;51.794;12.258;2023-08-12T06:08:59;21.10;48.10
1680;DHT22;838;51.794;12.258;2023-08-12T06:11:25;21.30;44.10
1680;DHT22;838;51.794;12.258;2023-08-12T06:13:51;21.40;45.00
1680;DHT22;838;51.794;12.258;2023-08-12T06:16:17;21.50;43.00
1680;DHT22;838;51.794;12.258;2023-08-12T06:18:42;21.40;45.00
1680;DHT22;838;51.794;12.258;2023-08-12T06:21:08;21.30;46.60
1680;DHT22;838;51.794;12.258;2023-08-12T06:23:33;21.40;45.00
1680;DHT22;838;51.794;12.258;2023-08-12T06:25:59;21.40;44.80
1680;DHT22;838;51.794;12.258;2023-08-12T06:28:25;21.40;45.30
1680;DHT22;838;51.794;12.258;2023-08-12T06:30:51;21.40;45.30
1680;DHT22;838;51.794;12.258;2023-08-12T06:33:16;21.40;42.80
1680;DHT22;838;51.794;12.258;2023-08-12T06:35:42;21.50;45.10
1680;DHT22;838;51.794;12.258;2023-08-12T06:38:08;21.50;42.70
1680;DHT22;838;51.794;12.258;2023-08-12T06:40:36;21.70;43.50
1680;DHT22;838;51.794;12.258;2023-08-12T06:43:02;21.90;40.30
1680;DHT22;838;51.794;12.258;2023-08-12T06:45:27;22.20;38.50
1680;DHT22;838;51.794;12.258;2023-08-12T06:47:53;22.50;35.20
1680;DHT22;838;51.794;12.258;2023-08-12T06:50:19;22.70;33.20
1680;DHT22;838;51.794;12.258;2023-08-12T06:52:44;22.90;29.40
1680;DHT22;838;51.794;12.258;2023-08-12T06:55:10;23.00;31.90
1680;DHT22;838;51.794;12.258;2023-08-12T06:57:36;23.10;29.50
1680;DHT22;838;51.794;12.258;2023-08-12T07:00:02;23.00;29.40
1680;DHT22;838;51.794;12.258;2023-08-12T07:02:28;23.10;27.90
1680;DHT22;838;51.794;12.258;2023-08-12T07:04:54;23.00;29.00
1680;DHT22;838;51.794;12.258;2023-08-12T07:07:19;23.10;28.40
1680;DHT22;838;51.794;12.258;2023-08-12T07:09:45;23.20;26.70
1680;DHT22;838;51.794;12.258;2023-08-12T07:12:11;23.50;25.00
1680;DHT22;838;51.794;12.258;2023-08-12T07:14:36;23.30;25.00
1680;DHT22;838;51.794;12.258;2023-08-12T07:17:02;23.20;27.00
1680;DHT22;838;51.794;12.258;2023-08-12T07:19:28;23.30;29.40
1680;DHT22;838;51.794;12.258;2023-08-12T07:21:53;23.40;28.70
1680;DHT22;838;51.794;12.258;2023-08-12T07:24:19;23.50;28.70
1680;DHT22;838;51.794;12.258;2023-08-12T07:26:45;23.30;28.00
1680;DHT22;838;51.794;12.258;2023-08-12T07:29:10;23.30;27.90
1680;DHT22;838;51.794;12.258;2023-08-12T07:31:36;23.60;30.40
1680;DHT22;838;51.794;12.258;2023-08-12T07:34:02;23.80;27.10
1680;DHT22;838;51.794;12.258;2023-08-12T07:36:28;23.90;25.30
1680;DHT22;838;51.794;12.258;2023-08-12T07:38:54;24.10;23.60
1680;DHT22;838;51.794;12.258;2023-08-12T07:41:19;24.40;21.80
1680;DHT22;838;51.794;12.258;2023-08-12T07:43:45;24.60;20.70
1680;DHT22;838;51.794;12.258;2023-08-12T07:46:11;24.60;20.40
1680;DHT22;838;51.794;12.258;2023-08-12T07:48:36;24.80;18.10
1680;DHT22;838;51.794;12.258;2023-08-12T07:51:03;25.00;14.80
1680;DHT22;838;51.794;12.258;2023-08-12T07:53:29;25.30;15.60
1680;DHT22;838;51.794;12.258;2023-08-12T07:55:55;25.40;14.60
1680;DHT22;838;51.794;12.258;2023-08-12T07:58:23;25.20;15.40
1680;DHT22;838;51.794;12.258;2023-08-12T08:00:52;25.10;18.10
1680;DHT22;838;51.794;12.258;2023-08-12T08:03:19;25.00;16.90
1680;DHT22;838;51.794;12.258;2023-08-12T08:05:45;24.60;23.80
1680;DHT22;838;51.794;12.258;2023-08-12T08:08:13;24.30;23.10
1680;DHT22;838;51.794;12.258;2023-08-12T08:10:38;24.40;23.80
1680;DHT22;838;51.794;12.258;2023-08-12T08:13:04;24.50;26.30
1680;DHT22;838;51.794;12.258;2023-08-12T08:15:30;24.60;25.30
1680;DHT22;838;51.794;12.258;2023-08-12T08:17:56;24.80;25.70
1680;DHT22;838;51.794;12.258;2023-08-12T08:20:21;25.00;24.90
1680;DHT22;838;51.794;12.258;2023-08-12T08:22:47;25.10;24.90
1680;DHT22;838;51.794;12.258;2023-08-12T08:25:13;25.20;24.20
1680;DHT22;838;51.794;12.258;2023-08-12T08:27:38;25.40;22.80
1680;DHT22;838;51.794;12.258;2023-08-12T08:30:08;25.30;23.50
1680;DHT22;838;51.794;12.258;2023-08-12T08:32:34;25.20;25.20
1680;DHT22;838;51.794;12.258;2023-08-12T08:35:00;25.10;27.80
1680;DHT22;838;51.794;12.258;2023-08-12T08:37:25;24.90;35.30
1680;DHT22;838;51.794;12.258;2023-08-12T08:39:51;24.40;41.50
1680;DHT22;838;51.794;12.258;2023-08-12T08:42:19;23.90;46.40
1680;DHT22;838;51.794;12.258;2023-08-12T08:44:45;23.40;55.40
1680;DHT22;838;51.794;12.258;2023-08-12T08:47:19;23.20;55.60
1680;DHT22;838;51.794;12.258;2023-08-12T08:49:50;23.10;58.80
1680;DHT22;838;51.794;12.258;2023-08-12T08:52:17;22.90;56.00
1680;DHT22;838;51.794;12.258;2023-08-12T08:54:43;22.70;51.30
1680;DHT22;838;51.794;12.258;2023-08-12T08:57:09;22.50;55.20
1680;DHT22;838;51.794;12.258;2023-08-12T08:59:35;22.50;56.70
1680;DHT22;838;51.794;12.258;2023-08-12T09:02:00;22.50;54.50
1680;DHT22;838;51.794;12.258;2023-08-12T09:04:27;22.40;58.70
1680;DHT22;838;51.794;12.258;2023-08-12T09:06:54;22.30;59.10
1680;DHT22;838;51.794;12.258;2023-08-12T09:09:20;22.40;59.80
1680;DHT22;838;51.794;12.258;2023-08-12T09:11:47;22.60;60.50
1680;DHT22;838;51.794;12.258;2023-08-12T09:14:13;22.80;56.30
1680;DHT22;838;51.794;12.258;2023-08-12T09:16:40;22.90;52.60
1680;DHT22;838;51.794;12.258;2023-08-12T09:19:06;23.10;49.80
1680;DHT22;838;51.794;12.258;2023-08-12T09:21:31;23.30;50.40
1680;DHT22;838;51.794;12.258;2023-08-12T09:24:03;23.70;46.90
1680;DHT22;838;51.794;12.258;2023-08-12T09:26:30;23.80;41.80
1680;DHT22;838;51.794;12.258;2023-08-12T09:28:55;24.00;40.80
1680;DHT22;838;51.794;12.258;2023-08-12T09:33:49;24.30;40.00
1680;DHT22;838;51.794;12.258;2023-08-12T09:36:16;24.50;39.10
1680;DHT22;838;51.794;12.258;2023-08-12T09:38:42;24.70;37.80
1680;DHT22;838;51.794;12.258;2023-08-12T09:41:08;24.80;35.20
1680;DHT22;838;51.794;12.258;2023-08-12T09:43:34;24.90;34.10
1680;DHT22;838;51.794;12.258;2023-08-12T09:46:02;25.00;34.10
1680;DHT22;838;51.794;12.258;2023-08-12T09:48:28;25.00;32.60
1680;DHT22;838;51.794;12.258;2023-08-12T09:50:54;25.10;33.00
1680;DHT22;838;51.794;12.258;2023-08-12T09:53:22;25.10;29.60
1680;DHT22;838;51.794;12.258;2023-08-12T09:55:48;25.20;27.60
1680;DHT22;838;51.794;12.258;2023-08-12T09:58:18;25.50;29.30
1680;DHT22;838;51.794;12.258;2023-08-12T10:00:48;25.70;25.40
1680;DHT22;838;51.794;12.258;2023-08-12T10:03:15;25.90;26.10
1680;DHT22;838;51.794;12.258;2023-08-12T10:05:43;26.20;23.80
1680;DHT22;838;51.794;12.258;2023-08-12T10:08:10;26.10;20.60
1680;DHT22;838;51.794;12.258;2023-08-12T10:10:37;26.10;20.20
1680;DHT22;838;51.794;12.258;2023-08-12T10:13:04;26.00;19.70
1680;DHT22;838;51.794;12.258;2023-08-12T10:15:33;26.00;21.20
1680;DHT22;838;51.794;12.258;2023-08-12T10:17:59;25.80;20.20
1680;DHT22;838;51.794;12.258;2023-08-12T10:20:25;25.80;20.00
1680;DHT22;838;51.794;12.258;2023-08-12T10:22:53;25.80;19.80
1680;DHT22;838;51.794;12.258;2023-08-12T10:25:20;25.80;20.80
1680;DHT22;838;51.794;12.258;2023-08-12T10:27:49;25.40;22.70
1680;DHT22;838;51.794;12.258;2023-08-12T10:30:15;25.10;24.30
1680;DHT22;838;51.794;12.258;2023-08-12T10:32:41;25.10;23.00
1680;DHT22;838;51.794;12.258;2023-08-12T10:35:08;25.00;29.40
1680;DHT22;838;51.794;12.258;2023-08-12T10:37:34;24.90;29.80
1680;DHT22;838;51.794;12.258;2023-08-12T10:40:04;24.80;31.90
1680;DHT22;838;51.794;12.258;2023-08-12T10:42:49;24.50;39.10
1680;DHT22;838;51.794;12.258;2023-08-12T10:45:17;24.00;53.00
1680;DHT22;838;51.794;12.258;2023-08-12T10:48:16;23.40;51.30
1680;DHT22;838;51.794;12.258;2023-08-12T10:50:51;23.30;56.00
1680;DHT22;838;51.794;12.258;2023-08-12T10:53:28;23.20;57.50
1680;DHT22;838;51.794;12.258;2023-08-12T10:56:11;23.30;58.20
1680;DHT22;838;51.794;12.258;2023-08-12T10:58:47;23.40;60.00
1680;DHT22;838;51.794;12.258;2023-08-12T11:01:19;23.60;60.80
1680;DHT22;838;51.794;12.258;2023-08-12T11:03:47;24.00;53.60
1680;DHT22;838;51.794;12.258;2023-08-12T11:06:13;24.20;49.10
1680;DHT22;838;51.794;12.258;2023-08-12T11:08:52;24.50;44.70
1680;DHT22;838;51.794;12.258;2023-08-12T11:11:24;25.10;44.20
1680;DHT22;838;51.794;12.258;2023-08-12T11:13:54;25.30;40.00
1680;DHT22;838;51.794;12.258;2023-08-12T11:16:31;25.50;44.20
1680;DHT22;838;51.794;12.258;2023-08-12T11:18:59;25.60;36.80
1680;DHT22;838;51.794;12.258;2023-08-12T11:21:26;25.90;35.40
1680;DHT22;838;51.794;12.258;2023-08-12T11:23:54;26.20;27.20
1680;DHT22;838;51.794;12.258;2023-08-12T11:26:23;26.30;30.60
1680;DHT22;838;51.794;12.258;2023-08-12T11:28:49;26.40;29.20
1680;DHT22;838;51.794;12.258;2023-08-12T11:31:16;26.50;29.00
1680;DHT22;838;51.794;12.258;2023-08-12T11:33:41;26.30;26.90
1680;DHT22;838;51.794;12.258;2023-08-12T11:36:07;26.40;25.00
1680;DHT22;838;51.794;12.258;2023-08-12T11:38:33;26.70;24.30
1680;DHT22;838;51.794;12.258;2023-08-12T11:41:02;26.70;19.20
1680;DHT22;838;51.794;12.258;2023-08-12T11:43:34;26.70;20.40
1680;DHT22;838;51.794;12.258;2023-08-12T11:45:59;26.70;18.90
1680;DHT22;838;51.794;12.258;2023-08-12T11:48:27;26.90;16.20
1680;DHT22;838;51.794;12.258;2023-08-12T11:50:53;27.00;7.40
1680;DHT22;838;51.794;12.258;2023-08-12T11:53:19;27.20;12.60
1680;DHT22;838;51.794;12.258;2023-08-12T11:55:45;27.50;7.80
1680;DHT22;838;51.794;12.258;2023-08-12T11:58:13;27.60;5.30
1680;DHT22;838;51.794;12.258;2023-08-12T12:00:39;27.50;7.00
1680;DHT22;838;51.794;12.258;2023-08-12T12:03:05;27.50;3.60
1680;DHT22;838;51.794;12.258;2023-08-12T12:05:32;27.60;1.00
1680;DHT22;838;51.794;12.258;2023-08-12T12:07:59;27.70;1.00
1680;DHT22;838;51.794;12.258;2023-08-12T12:10:30;27.80;1.00
1680;DHT22;838;51.794;12.258;2023-08-12T12:12:56;27.70;1.00
1680;DHT22;838;51.794;12.258;2023-08-12T12:15:23;27.90;1.00
1680;DHT22;838;51.794;12.258;2023-08-12T12:17:49;28.00;1.00
1680;DHT22;838;51.794;12.258;2023-08-12T12:20:16;28.20;1.00
1680;DHT22;838;51.794;12.258;2023-08-12T12:22:44;28.20;1.00
1680;DHT22;838;51.794;12.258;2023-08-12T12:25:12;28.50;1.00
1680;DHT22;838;51.794;12.258;2023-08-12T12:27:38;28.70;1.00
1680;DHT22;838;51.794;12.258;2023-08-12T12:30:09;28.90;1.00
1680;DHT22;838;51.794;12.258;2023-08-12T12:32:35;29.10;1.00
1680;DHT22;838;51.794;12.258;2023-08-12T12:35:01;29.00;1.00
1680;DHT22;838;51.794;12.258;2023-08-12T12:37:27;28.90;1.00
1680;DHT22;838;51.794;12.258;2023-08-12T12:39:53;29.00;1.00
1680;DHT22;838;51.794;12.258;2023-08-12T12:42:19;29.20;1.00
1680;DHT22;838;51.794;12.258;2023-08-12T12:44:44;29.60;1.00
1680;DHT22;838;51.794;12.258;2023-08-12T12:47:10;29.80;1.00
1680;DHT22;838;51.794;12.258;2023-08-12T12:49:38;30.00;1.00
1680;DHT22;838;51.794;12.258;2023-08-12T12:52:04;30.20;1.00
1680;DHT22;838;51.794;12.258;2023-08-12T12:54:30;30.30;1.00
1680;DHT22;838;51.794;12.258;2023-08-12T12:56:56;30.50;1.00
1680;DHT22;838;51.794;12.258;2023-08-12T12:59:22;30.50;1.00
1680;DHT22;838;51.794;12.258;2023-08-12T13:01:49;30.60;1.00
1680;DHT22;838;51.794;12.258;2023-08-12T13:04:15;30.80;1.00
1680;DHT22;838;51.794;12.258;2023-08-12T13:06:41;30.80;1.00
1680;DHT22;838;51.794;12.258;2023-08-12T13:09:07;30.50;1.00
1680;DHT22;838;51.794;12.258;2023-08-12T13:11:33;30.40;1.00
1680;DHT22;838;51.794;12.258;2023-08-12T13:14:00;30.40;1.00
1680;DHT22;838;51.794;12.258;2023-08-12T13:16:26;30.50;1.00
1680;DHT22;838;51.794;12.258;2023-08-12T13:18:52;30.50;1.00
1680;DHT22;838;51.794;12.258;2023-08-12T13:21:18;30.00;1.00
1680;DHT22;838;51.794;12.258;2023-08-12T13:23:43;29.90;1.00
1680;DHT22;838;51.794;12.258;2023-08-12T13:26:09;29.90;1.00
1680;DHT22;838;51.794;12.258;2023-08-12T13:28:35;29.80;1.00
1680;DHT22;838;51.794;12.258;2023-08-12T13:31:01;29.70;1.00
1680;DHT22;838;51.794;12.258;2023-08-12T13:33:26;29.90;1.00
1680;DHT22;838;51.794;12.258;2023-08-12T13:35:52;30.10;1.00
1680;DHT22;838;51.794;12.258;2023-08-12T13:38:18;30.10;1.00
1680;DHT22;838;51.794;12.258;2023-08-12T13:40:43;30.20;1.00
1680;DHT22;838;51.794;12.258;2023-08-12T13:43:09;30.10;1.00
1680;DHT22;838;51.794;12.258;2023-08-12T13:45:35;29.90;1.00
1680;DHT22;838;51.794;12.258;2023-08-12T13:48:01;30.20;1.00
1680;DHT22;838;51.794;12.258;2023-08-12T13:50:27;30.40;1.00
1680;DHT22;838;51.794;12.258;2023-08-12T13:52:53;30.60;1.00
1680;DHT22;838;51.794;12.258;2023-08-12T13:55:18;30.80;1.00
1680;DHT22;838;51.794;12.258;2023-08-12T13:57:44;31.00;1.00
1680;DHT22;838;51.794;12.258;2023-08-12T14:00:10;31.40;1.00
1680;DHT22;838;51.794;12.258;2023-08-12T14:02:39;31.90;1.00
1680;DHT22;838;51.794;12.258;2023-08-12T14:05:05;32.10;1.00
1680;DHT22;838;51.794;12.258;2023-08-12T14:07:31;32.10;1.00
1680;DHT22;838;51.794;12.258;2023-08-12T14:09:58;31.90;1.00
1680;DHT22;838;51.794;12.258;2023-08-12T14:12:24;31.60;1.00
1680;DHT22;838;51.794;12.258;2023-08-12T14:14:50;31.30;1.00
1680;DHT22;838;51.794;12.258;2023-08-12T14:17:15;30.90;1.00
1680;DHT22;838;51.794;12.258;2023-08-12T14:19:44;30.90;1.00
1680;DHT22;838;51.794;12.258;2023-08-12T14:22:13;31.00;1.00
1680;DHT22;838;51.794;12.258;2023-08-12T14:24:39;31.10;1.00
1680;DHT22;838;51.794;12.258;2023-08-12T14:27:05;31.20;1.00
1680;DHT22;838;51.794;12.258;2023-08-12T14:29:30;31.20;1.00
1680;DHT22;838;51.794;12.258;2023-08-12T14:31:57;31.20;1.00
1680;DHT22;838;51.794;12.258;2023-08-12T14:34:23;31.30;1.00
1680;DHT22;838;51.794;12.258;2023-08-12T14:36:49;31.60;1.00
1680;DHT22;838;51.794;12.258;2023-08-12T14:39:14;31.60;1.00
1680;DHT22;838;51.794;12.258;2023-08-12T14:41:40;31.70;1.00
1680;DHT22;838;51.794;12.258;2023-08-12T14:44:06;31.70;1.00
1680;DHT22;838;51.794;12.258;2023-08-12T14:46:31;31.70;1.00
1680;DHT22;838;51.794;12.258;2023-08-12T14:48:57;31.60;1.00
1680;DHT22;838;51.794;12.258;2023-08-12T14:51:23;31.60;1.00
1680;DHT22;838;51.794;12.258;2023-08-12T14:53:48;31.60;1.00
1680;DHT22;838;51.794;12.258;2023-08-12T14:56:15;31.80;1.00
1680;DHT22;838;51.794;12.258;2023-08-12T14:58:40;31.90;1.00
1680;DHT22;838;51.794;12.258;2023-08-12T15:01:06;32.20;1.00
1680;DHT22;838;51.794;12.258;2023-08-12T15:03:32;32.30;1.00
1680;DHT22;838;51.794;12.258;2023-08-12T15:06:02;32.60;1.00
1680;DHT22;838;51.794;12.258;2023-08-12T15:08:29;32.80;1.00
1680;DHT22;838;51.794;12.258;2023-08-12T15:10:55;32.90;1.00
1680;DHT22;838;51.794;12.258;2023-08-12T15:13:21;32.90;1.00
1680;DHT22;838;51.794;12.258;2023-08-12T15:15:48;32.80;1.00
1680;DHT22;838;51.794;12.258;2023-08-12T15:18:14;32.70;1.00
1680;DHT22;838;51.794;12.258;2023-08-12T15:20:40;32.50;1.00
1680;DHT22;838;51.794;12.258;2023-08-12T15:23:06;32.40;1.00
1680;DHT22;838;51.794;12.258;2023-08-12T15:25:31;32.10;1.00
1680;DHT22;838;51.794;12.258;2023-08-12T15:27:57;31.90;1.00
1680;DHT22;838;51.794;12.258;2023-08-12T15:30:23;31.90;1.00
1680;DHT22;838;51.794;12.258;2023-08-12T15:32:49;31.70;1.00
1680;DHT22;838;51.794;12.258;2023-08-12T15:35:16;31.50;1.00
1680;DHT22;838;51.794;12.258;2023-08-12T15:37:42;31.20;1.00
1680;DHT22;838;51.794;12.258;2023-08-12T15:40:08;31.20;1.00
1680;DHT22;838;51.794;12.258;2023-08-12T15:42:34;31.20;1.00
1680;DHT22;838;51.794;12.258;2023-08-12T15:45:00;31.20;1.00
1680;DHT22;838;51.794;12.258;2023-08-12T15:47:28;31.30;1.00
1680;DHT22;838;51.794;12.258;2023-08-12T15:49:54;31.30;1.00
1680;DHT22;838;51.794;12.258;2023-08-12T15:52:20;31.30;1.00
1680;DHT22;838;51.794;12.258;2023-08-12T15:54:46;31.20;1.00
1680;DHT22;838;51.794;12.258;2023-08-12T15:57:12;31.20;1.00
1680;DHT22;838;51.794;12.258;2023-08-12T15:59:37;31.10;1.00
1680;DHT22;838;51.794;12.258;2023-08-12T16:02:04;30.90;1.00
1680;DHT22;838;51.794;12.258;2023-08-12T16:04:29;30.80;1.00